sensor_id;sensor_type;location;lat;lon;timestamp;pressure;altitude;pressure_sealevel;temperature;humidity
49627;BME280;35527;54.616;39.786;2023-01-31T00:00:34;98473.16;;;-3.21;100.00
49627;BME280;35527;54.616;39.786;2023-01-31T00:03:39;98463.16;;;-3.34;100.00
49627;BME280;35527;54.616;39.786;2023-01-31T00:06:43;98488.38;;;-3.25;100.00
49627;BME280;35527;54.616;39.786;2023-01-31T00:09:54;98457.25;;;-3.38;100.00
49627;BME280;35527;54.616;39.786;2023-01-31T00:12:57;98478.25;;;-3.27;100.00
49627;BME280;35527;54.616;39.786;2023-01-31T00:16:00;98476.56;;;-3.25;100.00
49627;BME280;35527;54.616;39.786;2023-01-31T00:19:03;98479.91;;;-3.18;100.00
49627;BME280;35527;54.616;39.786;2023-01-31T00:22:08;98486.53;;;-2.97;100.00
49627;BME280;35527;54.616;39.786;2023-01-31T00:25:37;98486.63;;;-3.14;100.00
49627;BME280;35527;54.616;39.786;2023-01-31T00:28:42;98493.38;;;-3.13;100.00
49627;BME280;35527;54.616;39.786;2023-01-31T00:31:46;98463.91;;;-3.26;100.00
49627;BME280;35527;54.616;39.786;2023-01-31T00:34:54;98493.41;;;-3.14;100.00
49627;BME280;35527;54.616;39.786;2023-01-31T00:38:22;98478.19;;;-3.13;100.00
49627;BME280;35527;54.616;39.786;2023-01-31T00:41:28;98505.16;;;-3.12;100.00
49627;BME280;35527;54.616;39.786;2023-01-31T00:44:33;98467.34;;;-3.29;100.00
49627;BME280;35527;54.616;39.786;2023-01-31T00:47:41;98478.22;;;-3.19;100.00
49627;BME280;35527;54.616;39.786;2023-01-31T00:50:47;98486.69;;;-3.22;100.00
49627;BME280;35527;54.616;39.786;2023-01-31T00:53:51;98503.53;;;-3.21;100.00
49627;BME280;35527;54.616;39.786;2023-01-31T00:56:54;98500.16;;;-3.20;100.00
49627;BME280;35527;54.616;39.786;2023-01-31T01:00:22;98489.22;;;-3.23;100.00
49627;BME280;35527;54.616;39.786;2023-01-31T01:03:27;98482.19;;;-2.77;100.00
49627;BME280;35527;54.616;39.786;2023-01-31T01:06:30;98482.19;;;-2.78;100.00
49627;BME280;35527;54.616;39.786;2023-01-31T01:09:34;98474.81;;;-3.13;100.00
49627;BME280;35527;54.616;39.786;2023-01-31T01:12:41;98467.81;;;-2.72;100.00
49627;BME280;35527;54.616;39.786;2023-01-31T01:15:49;98511.59;;;-2.63;100.00
49627;BME280;35527;54.616;39.786;2023-01-31T01:18:54;98494.13;;;-2.99;100.00
49627;BME280;35527;54.616;39.786;2023-01-31T01:21:58;98477.34;;;-3.10;100.00
49627;BME280;35527;54.616;39.786;2023-01-31T01:25:02;98463.06;;;-3.24;100.00
49627;BME280;35527;54.616;39.786;2023-01-31T01:28:07;98487.47;;;-3.10;100.00
49627;BME280;35527;54.616;39.786;2023-01-31T01:31:13;98459.69;;;-3.21;100.00
49627;BME280;35527;54.616;39.786;2023-01-31T01:34:19;98485.81;;;-3.18;100.00
49627;BME280;35527;54.616;39.786;2023-01-31T01:37:25;98476.50;;;-3.15;100.00
49627;BME280;35527;54.616;39.786;2023-01-31T01:40:37;98494.22;;;-3.14;100.00
49627;BME280;35527;54.616;39.786;2023-01-31T01:50:43;98495.06;;;-3.15;100.00
49627;BME280;35527;54.616;39.786;2023-01-31T01:53:50;98497.63;;;-3.17;100.00
49627;BME280;35527;54.616;39.786;2023-01-31T01:57:00;98501.84;;;-3.22;100.00
49627;BME280;35527;54.616;39.786;2023-01-31T02:00:12;98484.16;;;-3.20;100.00
49627;BME280;35527;54.616;39.786;2023-01-31T02:03:19;98487.56;;;-3.26;100.00
49627;BME280;35527;54.616;39.786;2023-01-31T02:06:22;98461.44;;;-3.34;100.00
49627;BME280;35527;54.616;39.786;2023-01-31T02:12:39;98492.56;;;-3.17;100.00
49627;BME280;35527;54.616;39.786;2023-01-31T02:15:42;98471.53;;;-3.32;100.00
49627;BME280;35527;54.616;39.786;2023-01-31T02:18:47;98499.34;;;-3.23;100.00
49627;BME280;35527;54.616;39.786;2023-01-31T02:28:36;98491.72;;;-3.17;100.00
49627;BME280;35527;54.616;39.786;2023-01-31T02:35:10;98500.97;;;-3.16;100.00
49627;BME280;35527;54.616;39.786;2023-01-31T02:38:42;98517.03;;;-3.17;100.00
49627;BME280;35527;54.616;39.786;2023-01-31T02:42:37;98505.19;;;-3.13;100.00
49627;BME280;35527;54.616;39.786;2023-01-31T02:46:15;98513.66;;;-3.18;100.00
49627;BME280;35527;54.616;39.786;2023-01-31T02:49:36;98478.31;;;-3.31;100.00
49627;BME280;35527;54.616;39.786;2023-01-31T02:53:12;98518.47;;;-2.75;100.00
49627;BME280;35527;54.616;39.786;2023-01-31T02:56:22;98522.91;;;-3.17;100.00
49627;BME280;35527;54.616;39.786;2023-01-31T02:59:29;98493.47;;;-3.31;100.00
49627;BME280;35527;54.616;39.786;2023-01-31T03:02:35;98509.44;;;-3.22;100.00
49627;BME280;35527;54.616;39.786;2023-01-31T03:05:39;98530.56;;;-3.26;100.00
49627;BME280;35527;54.616;39.786;2023-01-31T03:08:44;98525.50;;;-3.27;100.00
49627;BME280;35527;54.616;39.786;2023-01-31T03:19:04;98538.09;;;-3.18;100.00
49627;BME280;35527;54.616;39.786;2023-01-31T03:22:25;98522.91;;;-3.13;100.00
49627;BME280;35527;54.616;39.786;2023-01-31T03:25:33;98523.72;;;-3.08;100.00
49627;BME280;35527;54.616;39.786;2023-01-31T03:28:42;98528.78;;;-3.13;100.00
49627;BME280;35527;54.616;39.786;2023-01-31T03:32:01;98517.84;;;-3.18;100.00
49627;BME280;35527;54.616;39.786;2023-01-31T03:35:05;98538.94;;;-3.11;100.00
49627;BME280;35527;54.616;39.786;2023-01-31T03:41:37;98536.34;;;-3.07;100.00
49627;BME280;35527;54.616;39.786;2023-01-31T03:48:06;98543.97;;;-3.10;100.00
49627;BME280;35527;54.616;39.786;2023-01-31T03:51:21;98514.53;;;-3.25;100.00
49627;BME280;35527;54.616;39.786;2023-01-31T03:54:33;98540.63;;;-3.13;100.00
49627;BME280;35527;54.616;39.786;2023-01-31T03:58:07;98534.72;;;-3.14;100.00
49627;BME280;35527;54.616;39.786;2023-01-31T04:01:11;98540.66;;;-3.20;100.00
49627;BME280;35527;54.616;39.786;2023-01-31T04:04:18;98543.09;;;-3.07;100.00
49627;BME280;35527;54.616;39.786;2023-01-31T04:07:23;98549.03;;;-3.13;100.00
49627;BME280;35527;54.616;39.786;2023-01-31T04:10:27;98551.56;;;-3.13;100.00
49627;BME280;35527;54.616;39.786;2023-01-31T04:13:30;98561.69;;;-3.13;100.00
49627;BME280;35527;54.616;39.786;2023-01-31T04:16:34;98546.50;;;-3.11;100.00
49627;BME280;35527;54.616;39.786;2023-01-31T04:19:39;98532.16;;;-3.12;100.00
49627;BME280;35527;54.616;39.786;2023-01-31T04:22:48;98533.03;;;-3.13;100.00
49627;BME280;35527;54.616;39.786;2023-01-31T04:25:52;98557.44;;;-3.09;100.00
49627;BME280;35527;54.616;39.786;2023-01-31T04:29:24;98565.06;;;-3.12;100.00
49627;BME280;35527;54.616;39.786;2023-01-31T04:32:28;98554.06;;;-3.05;100.00
49627;BME280;35527;54.616;39.786;2023-01-31T04:35:33;98530.47;;;-3.15;100.00
49627;BME280;35527;54.616;39.786;2023-01-31T04:38:37;98561.72;;;-3.14;100.00
49627;BME280;35527;54.616;39.786;2023-01-31T04:41:40;98523.00;;;-3.41;100.00
49627;BME280;35527;54.616;39.786;2023-01-31T04:44:50;98534.75;;;-3.23;100.00
49627;BME280;35527;54.616;39.786;2023-01-31T04:47:54;98558.34;;;-3.21;100.00
49627;BME280;35527;54.616;39.786;2023-01-31T04:50:58;98546.50;;;-3.13;100.00
49627;BME280;35527;54.616;39.786;2023-01-31T04:54:04;98542.25;;;-3.03;100.00
49627;BME280;35527;54.616;39.786;2023-01-31T04:57:08;98570.13;;;-3.14;100.00
49627;BME280;35527;54.616;39.786;2023-01-31T05:00:14;98552.41;;;-3.08;100.00
49627;BME280;35527;54.616;39.786;2023-01-31T05:03:19;98566.72;;;-3.07;100.00
49627;BME280;35527;54.616;39.786;2023-01-31T05:06:22;98559.97;;;-3.06;100.00
49627;BME280;35527;54.616;39.786;2023-01-31T05:09:30;98566.69;;;-3.01;100.00
49627;BME280;35527;54.616;39.786;2023-01-31T05:12:34;98568.38;;;-2.98;100.00
49627;BME280;35527;54.616;39.786;2023-01-31T05:15:39;98595.41;;;-3.03;100.00
49627;BME280;35527;54.616;39.786;2023-01-31T05:18:44;98583.59;;;-3.03;100.00
49627;BME280;35527;54.616;39.786;2023-01-31T05:21:48;98570.13;;;-3.14;100.00
49627;BME280;35527;54.616;39.786;2023-01-31T05:25:00;98581.88;;;-2.99;100.00
49627;BME280;35527;54.616;39.786;2023-01-31T05:28:03;98555.78;;;-3.13;100.00
49627;BME280;35527;54.616;39.786;2023-01-31T05:31:12;98603.00;;;-3.09;100.00
49627;BME280;35527;54.616;39.786;2023-01-31T05:34:16;98592.88;;;-3.05;100.00
49627;BME280;35527;54.616;39.786;2023-01-31T05:37:19;98602.19;;;-3.11;100.00
49627;BME280;35527;54.616;39.786;2023-01-31T05:40:24;98596.22;;;-3.04;100.00
49627;BME280;35527;54.616;39.786;2023-01-31T05:43:26;98566.72;;;-3.02;100.00
49627;BME280;35527;54.616;39.786;2023-01-31T05:46:34;98585.25;;;-2.97;100.00
49627;BME280;35527;54.616;39.786;2023-01-31T05:49:38;98600.41;;;-2.94;100.00
49627;BME280;35527;54.616;39.786;2023-01-31T05:52:41;98608.84;;;-2.93;100.00
49627;BME280;35527;54.616;39.786;2023-01-31T05:55:43;98595.34;;;-2.94;100.00
49627;BME280;35527;54.616;39.786;2023-01-31T05:59:12;98564.19;;;-3.07;100.00
49627;BME280;35527;54.616;39.786;2023-01-31T06:02:16;98620.66;;;-2.91;100.00
49627;BME280;35527;54.616;39.786;2023-01-31T06:05:20;98595.34;;;-2.94;100.00
49627;BME280;35527;54.616;39.786;2023-01-31T06:08:23;98581.88;;;-3.01;100.00
49627;BME280;35527;54.616;39.786;2023-01-31T06:11:28;98604.56;;;-2.81;100.00
49627;BME280;35527;54.616;39.786;2023-01-31T06:14:35;98602.88;;;-2.80;100.00
49627;BME280;35527;54.616;39.786;2023-01-31T06:17:40;98572.56;;;-2.91;100.00
49627;BME280;35527;54.616;39.786;2023-01-31T06:20:42;98621.38;;;-2.67;100.00
49627;BME280;35527;54.616;39.786;2023-01-31T06:23:46;98619.66;;;-2.64;100.00
49627;BME280;35527;54.616;39.786;2023-01-31T06:26:52;98580.91;;;-2.77;100.00
49627;BME280;35527;54.616;39.786;2023-01-31T06:29:56;98608.66;;;-2.57;100.00
49627;BME280;35527;54.616;39.786;2023-01-31T06:33:02;98592.59;;;-2.51;100.00
49627;BME280;35527;54.616;39.786;2023-01-31T06:36:07;98579.19;;;-2.70;100.00
49627;BME280;35527;54.616;39.786;2023-01-31T06:39:13;98593.41;;;-2.46;100.00
49627;BME280;35527;54.616;39.786;2023-01-31T06:42:16;98621.28;;;-2.51;100.00
49627;BME280;35527;54.616;39.786;2023-01-31T06:45:20;98597.59;;;-2.42;100.00
49627;BME280;35527;54.616;39.786;2023-01-31T06:48:50;98609.34;;;-2.35;100.00
49627;BME280;35527;54.616;39.786;2023-01-31T06:51:58;98586.53;;;-2.30;100.00
49627;BME280;35527;54.616;39.786;2023-01-31T06:55:02;98605.94;;;-2.26;100.00
49627;BME280;35527;54.616;39.786;2023-01-31T06:58:06;98594.16;;;-2.32;100.00
49627;BME280;35527;54.616;39.786;2023-01-31T07:01:12;98622.00;;;-2.29;100.00
49627;BME280;35527;54.616;39.786;2023-01-31T07:04:18;98615.97;;;-2.14;100.00
49627;BME280;35527;54.616;39.786;2023-01-31T07:07:22;98622.66;;;-2.05;100.00
49627;BME280;35527;54.616;39.786;2023-01-31T07:10:25;98628.59;;;-2.09;100.00
49627;BME280;35527;54.616;39.786;2023-01-31T07:13:31;98616.81;;;-2.12;100.00
49627;BME280;35527;54.616;39.786;2023-01-31T07:16:36;98610.09;;;-2.20;100.00
49627;BME280;35527;54.616;39.786;2023-01-31T07:19:40;98634.50;;;-2.07;100.00
49627;BME280;35527;54.616;39.786;2023-01-31T07:22:43;98634.56;;;-2.12;100.00
49627;BME280;35527;54.616;39.786;2023-01-31T07:25:47;98611.81;;;-2.24;100.00
49627;BME280;35527;54.616;39.786;2023-01-31T07:28:52;98637.91;;;-2.10;100.00
49627;BME280;35527;54.616;39.786;2023-01-31T07:31:57;98647.22;;;-2.15;100.00
49627;BME280;35527;54.616;39.786;2023-01-31T07:35:00;98621.22;;;-2.37;100.00
49627;BME280;35527;54.616;39.786;2023-01-31T07:38:04;98627.09;;;-2.32;100.00
49627;BME280;35527;54.616;39.786;2023-01-31T07:41:09;98652.28;;;-2.15;100.00
49627;BME280;35527;54.616;39.786;2023-01-31T07:44:12;98622.81;;;-2.27;100.00
49627;BME280;35527;54.616;39.786;2023-01-31T07:47:16;98640.38;;;-1.99;100.00
49627;BME280;35527;54.616;39.786;2023-01-31T07:50:19;98666.53;;;-1.95;100.00
49627;BME280;35527;54.616;39.786;2023-01-31T07:53:29;98649.63;;;-1.93;100.00
49627;BME280;35527;54.616;39.786;2023-01-31T07:56:33;98640.38;;;-1.97;100.00
49627;BME280;35527;54.616;39.786;2023-01-31T07:59:36;98641.13;;;-1.88;100.00
49627;BME280;35527;54.616;39.786;2023-01-31T08:02:41;98656.38;;;-1.95;100.00
49627;BME280;35527;54.616;39.786;2023-01-31T08:06:09;98651.31;;;-1.94;100.00
49627;BME280;35527;54.616;39.786;2023-01-31T08:09:13;98671.56;;;-1.91;100.00
49627;BME280;35527;54.616;39.786;2023-01-31T08:12:16;98684.16;;;-1.77;100.00
49627;BME280;35527;54.616;39.786;2023-01-31T08:15:21;98679.09;;;-1.82;100.00
49627;BME280;35527;54.616;39.786;2023-01-31T08:18:25;98641.09;;;-1.86;100.00
49627;BME280;35527;54.616;39.786;2023-01-31T08:21:30;98677.34;;;-1.75;100.00
49627;BME280;35527;54.616;39.786;2023-01-31T08:24:34;98674.06;;;-1.85;100.00
49627;BME280;35527;54.616;39.786;2023-01-31T08:27:38;98663.09;;;-1.90;100.00
49627;BME280;35527;54.616;39.786;2023-01-31T08:30:45;98674.94;;;-1.86;100.00
49627;BME280;35527;54.616;39.786;2023-01-31T08:33:55;98691.81;;;-1.86;100.00
49627;BME280;35527;54.616;39.786;2023-01-31T08:37:00;98667.38;;;-1.96;100.00
49627;BME280;35527;54.616;39.786;2023-01-31T08:40:05;98672.16;;;-1.60;100.00
49627;BME280;35527;54.616;39.786;2023-01-31T08:43:10;98678.88;;;-1.55;100.00
49627;BME280;35527;54.616;39.786;2023-01-31T08:46:13;98695.81;;;-1.54;100.00
49627;BME280;35527;54.616;39.786;2023-01-31T08:49:16;98685.59;;;-1.50;100.00
49627;BME280;35527;54.616;39.786;2023-01-31T08:52:27;98703.31;;;-1.44;100.00
49627;BME280;35527;54.616;39.786;2023-01-31T08:55:34;98701.44;;;-1.22;100.00
49627;BME280;35527;54.616;39.786;2023-01-31T08:58:39;98720.03;;;-1.21;100.00
49627;BME280;35527;54.616;39.786;2023-01-31T09:01:44;98687.91;;;-1.22;100.00
49627;BME280;35527;54.616;39.786;2023-01-31T09:04:48;98681.97;;;-1.23;100.00
49627;BME280;35527;54.616;39.786;2023-01-31T09:08:17;98697.81;;;-1.01;100.00
49627;BME280;35527;54.616;39.786;2023-01-31T09:11:20;98703.72;;;-1.00;100.00
49627;BME280;35527;54.616;39.786;2023-01-31T09:14:23;98689.28;;;-0.94;100.00
49627;BME280;35527;54.616;39.786;2023-01-31T09:17:26;98664.66;;;-0.87;100.00
49627;BME280;35527;54.616;39.786;2023-01-31T09:20:31;98673.88;;;-0.78;100.00
49627;BME280;35527;54.616;39.786;2023-01-31T09:23:59;98695.94;;;-0.83;100.00
49627;BME280;35527;54.616;39.786;2023-01-31T09:27:06;98691.03;;;-0.99;100.00
49627;BME280;35527;54.616;39.786;2023-01-31T09:30:09;98686.66;;;-0.84;100.00
49627;BME280;35527;54.616;39.786;2023-01-31T09:33:15;98682.25;;;-0.69;100.00
49627;BME280;35527;54.616;39.786;2023-01-31T09:36:21;98682.38;;;-0.81;100.00
49627;BME280;35527;54.616;39.786;2023-01-31T09:39:52;98709.28;;;-0.64;100.00
49627;BME280;35527;54.616;39.786;2023-01-31T09:42:56;98661.25;;;-0.83;100.00
49627;BME280;35527;54.616;39.786;2023-01-31T09:46:15;98680.63;;;-0.76;100.00
49627;BME280;35527;54.616;39.786;2023-01-31T09:49:26;98687.25;;;-0.62;100.00
49627;BME280;35527;54.616;39.786;2023-01-31T09:52:31;98714.50;;;-0.77;100.00
49627;BME280;35527;54.616;39.786;2023-01-31T10:08:56;98700.38;;;-1.02;100.00
49627;BME280;35527;54.616;39.786;2023-01-31T10:12:20;98694.66;;;-1.20;100.00
49627;BME280;35527;54.616;39.786;2023-01-31T10:18:31;98704.63;;;-1.03;100.00
49627;BME280;35527;54.616;39.786;2023-01-31T10:21:42;98697.78;;;-0.98;100.00
49627;BME280;35527;54.616;39.786;2023-01-31T10:24:57;98678.34;;;-0.97;100.00
49627;BME280;35527;54.616;39.786;2023-01-31T10:28:15;98700.09;;;-0.76;100.00
49627;BME280;35527;54.616;39.786;2023-01-31T10:31:35;98667.13;;;-0.79;100.00
49627;BME280;35527;54.616;39.786;2023-01-31T10:35:13;98685.69;;;-0.74;100.00
49627;BME280;35527;54.616;39.786;2023-01-31T10:38:25;98704.19;;;-0.64;100.00
49627;BME280;35527;54.616;39.786;2023-01-31T10:45:19;98736.34;;;-0.62;100.00
49627;BME280;35527;54.616;39.786;2023-01-31T10:48:28;98703.59;;;-0.86;100.00
49627;BME280;35527;54.616;39.786;2023-01-31T10:58:03;98697.53;;;-0.75;100.00
49627;BME280;35527;54.616;39.786;2023-01-31T11:01:08;98689.38;;;-1.01;100.00
49627;BME280;35527;54.616;39.786;2023-01-31T11:07:30;98703.09;;;-1.21;100.00
49627;BME280;35527;54.616;39.786;2023-01-31T11:10:50;98695.47;;;-1.19;100.00
49627;BME280;35527;54.616;39.786;2023-01-31T11:14:03;98718.31;;;-1.19;100.00
49627;BME280;35527;54.616;39.786;2023-01-31T11:17:22;98712.38;;;-1.18;100.00
49627;BME280;35527;54.616;39.786;2023-01-31T11:20:35;98685.56;;;-1.45;100.00
49627;BME280;35527;54.616;39.786;2023-01-31T11:23:42;98720.22;;;-1.44;100.00
49627;BME280;35527;54.616;39.786;2023-01-31T11:27:05;98679.78;;;-1.61;100.00
49627;BME280;35527;54.616;39.786;2023-01-31T11:30:32;98705.09;;;-1.53;100.00
49627;BME280;35527;54.616;39.786;2023-01-31T11:33:54;98733.78;;;-1.47;100.00
49627;BME280;35527;54.616;39.786;2023-01-31T11:40:21;98717.78;;;-1.55;100.00
49627;BME280;35527;54.616;39.786;2023-01-31T11:43:28;98744.78;;;-1.48;100.00
49627;BME280;35527;54.616;39.786;2023-01-31T11:46:46;98725.41;;;-1.56;100.00
49627;BME280;35527;54.616;39.786;2023-01-31T11:49:54;98718.75;;;-1.70;100.00
49627;BME280;35527;54.616;39.786;2023-01-31T11:52:59;98725.50;;;-1.67;100.00
49627;BME280;35527;54.616;39.786;2023-01-31T11:56:11;98724.56;;;-1.55;100.00
49627;BME280;35527;54.616;39.786;2023-01-31T11:59:19;98728.81;;;-1.61;100.00
49627;BME280;35527;54.616;39.786;2023-01-31T12:02:34;98731.38;;;-1.62;100.00
49627;BME280;35527;54.616;39.786;2023-01-31T12:05:42;98715.25;;;-1.55;100.00
49627;BME280;35527;54.616;39.786;2023-01-31T12:08:53;98730.50;;;-1.61;100.00
49627;BME280;35527;54.616;39.786;2023-01-31T12:12:00;98717.09;;;-1.75;100.00
49627;BME280;35527;54.616;39.786;2023-01-31T12:15:13;98733.81;;;-1.48;100.00
49627;BME280;35527;54.616;39.786;2023-01-31T12:21:39;98741.47;;;-1.58;100.00
49627;BME280;35527;54.616;39.786;2023-01-31T12:24:50;98739.72;;;-1.48;100.00
49627;BME280;35527;54.616;39.786;2023-01-31T12:42:22;98759.31;;;-1.67;100.00
49627;BME280;35527;54.616;39.786;2023-01-31T12:45:45;98760.22;;;-1.74;100.00
49627;BME280;35527;54.616;39.786;2023-01-31T12:49:19;98762.72;;;-1.72;100.00
49627;BME280;35527;54.616;39.786;2023-01-31T12:56:36;98764.41;;;-1.68;100.00
49627;BME280;35527;54.616;39.786;2023-01-31T13:06:48;98745.91;;;-1.83;100.00
49627;BME280;35527;54.616;39.786;2023-01-31T13:09:58;98771.22;;;-1.76;100.00
49627;BME280;35527;54.616;39.786;2023-01-31T13:13:05;98774.53;;;-1.70;100.00
49627;BME280;35527;54.616;39.786;2023-01-31T13:16:39;98773.72;;;-1.69;100.00
49627;BME280;35527;54.616;39.786;2023-01-31T13:19:57;98772.03;;;-1.77;100.00
49627;BME280;35527;54.616;39.786;2023-01-31T13:23:12;98765.31;;;-1.77;100.00
49627;BME280;35527;54.616;39.786;2023-01-31T13:26:30;98763.56;;;-1.69;100.00
49627;BME280;35527;54.616;39.786;2023-01-31T13:29:38;98799.09;;;-1.76;100.00
49627;BME280;35527;54.616;39.786;2023-01-31T13:32:48;98794.94;;;-1.85;100.00
49627;BME280;35527;54.616;39.786;2023-01-31T13:36:16;98788.97;;;-1.76;100.00
49627;BME280;35527;54.616;39.786;2023-01-31T13:39:44;98788.09;;;-1.74;100.00
49627;BME280;35527;54.616;39.786;2023-01-31T13:42:51;98787.34;;;-1.90;100.00
49627;BME280;35527;54.616;39.786;2023-01-31T13:46:13;98789.03;;;-1.87;100.00
49627;BME280;35527;54.616;39.786;2023-01-31T13:49:30;98805.91;;;-1.85;100.00
49627;BME280;35527;54.616;39.786;2023-01-31T13:52:48;98799.16;;;-1.84;100.00
49627;BME280;35527;54.616;39.786;2023-01-31T13:55:54;98799.19;;;-1.89;100.00
49627;BME280;35527;54.616;39.786;2023-01-31T13:59:01;98773.88;;;-2.01;100.00
49627;BME280;35527;54.616;39.786;2023-01-31T14:02:14;98793.13;;;-1.68;100.00
49627;BME280;35527;54.616;39.786;2023-01-31T14:18:46;98814.28;;;-1.72;100.00
49627;BME280;35527;54.616;39.786;2023-01-31T14:28:13;98812.66;;;-1.84;100.00
49627;BME280;35527;54.616;39.786;2023-01-31T14:31:17;98799.19;;;-1.95;100.00
49627;BME280;35527;54.616;39.786;2023-01-31T14:34:24;98816.03;;;-1.80;100.00
49627;BME280;35527;54.616;39.786;2023-01-31T14:41:27;98819.34;;;-1.67;100.00
49627;BME280;35527;54.616;39.786;2023-01-31T14:48:31;98827.81;;;-1.70;100.00
49627;BME280;35527;54.616;39.786;2023-01-31T14:55:07;98827.84;;;-1.76;100.00
49627;BME280;35527;54.616;39.786;2023-01-31T14:58:24;98854.94;;;-1.83;100.00
49627;BME280;35527;54.616;39.786;2023-01-31T15:01:34;98849.81;;;-1.75;100.00
49627;BME280;35527;54.616;39.786;2023-01-31T15:04:39;98841.34;;;-1.72;100.00
49627;BME280;35527;54.616;39.786;2023-01-31T15:11:41;98847.31;;;-1.83;100.00
49627;BME280;35527;54.616;39.786;2023-01-31T15:14:46;98817.78;;;-1.91;100.00
49627;BME280;35527;54.616;39.786;2023-01-31T15:17:52;98883.66;;;-1.79;100.00
49627;BME280;35527;54.616;39.786;2023-01-31T15:20:58;98844.00;;;-1.97;100.00
49627;BME280;35527;54.616;39.786;2023-01-31T15:24:35;98865.06;;;-1.83;100.00
49627;BME280;35527;54.616;39.786;2023-01-31T15:27:40;98859.97;;;-1.81;100.00
49627;BME280;35527;54.616;39.786;2023-01-31T15:30:49;98865.06;;;-1.83;100.00
49627;BME280;35527;54.616;39.786;2023-01-31T15:33:58;98847.28;;;-1.75;100.00
49627;BME280;35527;54.616;39.786;2023-01-31T15:37:13;98873.50;;;-1.81;100.00
49627;BME280;35527;54.616;39.786;2023-01-31T15:40:46;98824.59;;;-2.02;100.00
49627;BME280;35527;54.616;39.786;2023-01-31T15:43:54;98871.81;;;-1.78;100.00
49627;BME280;35527;54.616;39.786;2023-01-31T15:46:58;98862.47;;;-1.72;100.00
49627;BME280;35527;54.616;39.786;2023-01-31T15:50:12;98867.59;;;-1.76;100.00
49627;BME280;35527;54.616;39.786;2023-01-31T15:53:17;98855.72;;;-1.73;100.00
49627;BME280;35527;54.616;39.786;2023-01-31T15:56:25;98881.06;;;-1.70;100.00
49627;BME280;35527;54.616;39.786;2023-01-31T15:59:32;98839.75;;;-1.93;100.00
49627;BME280;35527;54.616;39.786;2023-01-31T16:02:36;98841.41;;;-1.85;100.00
49627;BME280;35527;54.616;39.786;2023-01-31T16:05:48;98870.09;;;-1.73;100.00
49627;BME280;35527;54.616;39.786;2023-01-31T16:08:57;98860.03;;;-1.92;100.00
49627;BME280;35527;54.616;39.786;2023-01-31T16:12:29;98819.56;;;-2.12;100.00
49627;BME280;35527;54.616;39.786;2023-01-31T16:15:38;98897.19;;;-1.85;100.00
49627;BME280;35527;54.616;39.786;2023-01-31T16:18:46;98880.28;;;-1.84;100.00
49627;BME280;35527;54.616;39.786;2023-01-31T16:21:53;98881.97;;;-1.85;100.00
49627;BME280;35527;54.616;39.786;2023-01-31T16:24:59;98883.69;;;-1.88;100.00
49627;BME280;35527;54.616;39.786;2023-01-31T16:28:10;98901.41;;;-1.79;100.00
49627;BME280;35527;54.616;39.786;2023-01-31T16:31:16;98906.50;;;-1.87;100.00
49627;BME280;35527;54.616;39.786;2023-01-31T16:34:26;98913.25;;;-1.79;100.00
49627;BME280;35527;54.616;39.786;2023-01-31T16:37:35;98887.91;;;-1.83;100.00
49627;BME280;35527;54.616;39.786;2023-01-31T16:40:50;98901.38;;;-1.71;100.00
49627;BME280;35527;54.616;39.786;2023-01-31T16:43:57;98901.44;;;-1.88;100.00
49627;BME280;35527;54.616;39.786;2023-01-31T16:47:04;98853.25;;;-1.90;100.00
49627;BME280;35527;54.616;39.786;2023-01-31T16:50:27;98917.34;;;-1.55;100.00
49627;BME280;35527;54.616;39.786;2023-01-31T16:54:21;98889.50;;;-1.69;100.00
49627;BME280;35527;54.616;39.786;2023-01-31T17:01:10;98876.94;;;-1.95;100.00
49627;BME280;35527;54.616;39.786;2023-01-31T17:04:18;98896.31;;;-1.81;100.00
49627;BME280;35527;54.616;39.786;2023-01-31T17:07:30;98890.38;;;-1.73;100.00
49627;BME280;35527;54.616;39.786;2023-01-31T17:10:35;98894.69;;;-1.91;100.00
49627;BME280;35527;54.616;39.786;2023-01-31T17:13:39;98897.22;;;-1.91;100.00
49627;BME280;35527;54.616;39.786;2023-01-31T17:16:44;98864.28;;;-1.98;100.00
49627;BME280;35527;54.616;39.786;2023-01-31T17:19:49;98888.81;;;-1.97;100.00
49627;BME280;35527;54.616;39.786;2023-01-31T17:22:54;98893.00;;;-1.93;100.00
49627;BME280;35527;54.616;39.786;2023-01-31T17:26:03;98892.13;;;-1.80;100.00
49627;BME280;35527;54.616;39.786;2023-01-31T17:29:08;98876.91;;;-1.86;100.00
49627;BME280;35527;54.616;39.786;2023-01-31T17:32:34;98888.69;;;-1.77;100.00
49627;BME280;35527;54.616;39.786;2023-01-31T17:35:43;98879.47;;;-1.91;100.00
49627;BME280;35527;54.616;39.786;2023-01-31T17:38:47;98914.09;;;-1.87;100.00
49627;BME280;35527;54.616;39.786;2023-01-31T17:41:55;98907.34;;;-1.83;100.00
49627;BME280;35527;54.616;39.786;2023-01-31T17:45:00;98898.06;;;-1.90;100.00
49627;BME280;35527;54.616;39.786;2023-01-31T17:48:05;98895.47;;;-1.81;100.00
49627;BME280;35527;54.616;39.786;2023-01-31T17:51:10;98882.88;;;-1.93;100.00
49627;BME280;35527;54.616;39.786;2023-01-31T17:54:12;98930.97;;;-1.78;100.00
49627;BME280;35527;54.616;39.786;2023-01-31T17:57:15;98906.50;;;-1.87;100.00
49627;BME280;35527;54.616;39.786;2023-01-31T18:00:20;98938.56;;;-1.75;100.00
49627;BME280;35527;54.616;39.786;2023-01-31T18:03:24;98902.28;;;-1.88;100.00
49627;BME280;35527;54.616;39.786;2023-01-31T18:06:28;98926.81;;;-1.88;100.00
49627;BME280;35527;54.616;39.786;2023-01-31T18:09:54;98906.47;;;-1.84;100.00
49627;BME280;35527;54.616;39.786;2023-01-31T18:12:57;98898.03;;;-1.83;100.00
49627;BME280;35527;54.616;39.786;2023-01-31T18:16:14;98927.59;;;-1.77;100.00
49627;BME280;35527;54.616;39.786;2023-01-31T18:19:44;98920.84;;;-1.81;100.00
49627;BME280;35527;54.616;39.786;2023-01-31T18:22:46;98910.72;;;-1.84;100.00
49627;BME280;35527;54.616;39.786;2023-01-31T18:25:50;98914.94;;;-1.85;100.00
49627;BME280;35527;54.616;39.786;2023-01-31T18:28:53;98916.63;;;-1.74;100.00
49627;BME280;35527;54.616;39.786;2023-01-31T18:32:01;98914.94;;;-1.82;100.00